Time;durP1;ratioP1;P1;durP2;ratioP2;P2;SDS_P1;SDS_P2;PMS_P1;PMS_P2;Temp;Humidity;BMP_temperature;BMP_pressure;BME280_temperature;BME280_humidity;BME280_pressure;Samples;Min_cycle;Max_cycle;Signal;HPM_P1;HPM_P2
2023/05/11 00:00:15;;;;;;;0.30;0.30;;;10.20;99.90;;;;;;4897421;29;20640;-61
2023/05/11 00:02:42;;;;;;;1.33;0.30;;;10.20;99.90;;;;;;4897494;29;20543;-60
2023/05/11 00:05:10;;;;;;;0.30;0.20;;;10.20;99.90;;;;;;4895523;29;20203;-60
2023/05/11 00:07:38;;;;;;;0.20;0.20;;;10.20;99.90;;;;;;4898006;29;20656;-60
2023/05/11 00:10:08;;;;;;;0.57;0.30;;;10.10;99.90;;;;;;4889641;29;20208;-60
2023/05/11 00:12:35;;;;;;;0.20;0.20;;;10.10;99.90;;;;;;4889053;29;20294;-60
2023/05/11 00:15:02;;;;;;;0.20;0.20;;;10.10;99.90;;;;;;4897697;29;20269;-59
2023/05/11 00:17:29;;;;;;;0.20;0.20;;;10.10;99.90;;;;;;4890452;29;20205;-60
2023/05/11 00:19:56;;;;;;;0.30;0.30;;;10.10;99.90;;;;;;4898079;29;20593;-60
2023/05/11 00:22:23;;;;;;;0.40;0.40;;;10.10;99.90;;;;;;4889354;29;20285;-60
2023/05/11 00:24:50;;;;;;;0.10;0.10;;;10.20;99.90;;;;;;4895521;29;20214;-60
2023/05/11 00:27:18;;;;;;;0.20;0.20;;;10.20;99.90;;;;;;4897504;29;20213;-60
2023/05/11 00:29:45;;;;;;;0.20;0.20;;;10.10;99.90;;;;;;4897278;29;20257;-60
2023/05/11 00:32:12;;;;;;;0.20;0.20;;;10.10;99.90;;;;;;4897179;29;20779;-60
2023/05/11 00:34:39;;;;;;;0.10;0.10;;;10.10;99.90;;;;;;4888461;29;20207;-60
2023/05/11 00:37:06;;;;;;;0.20;0.20;;;10.00;99.90;;;;;;4895850;29;20270;-60
2023/05/11 00:39:38;;;;;;;1.07;0.20;;;10.10;99.90;;;;;;4897320;29;20219;-60
2023/05/11 00:42:06;;;;;;;1.57;0.20;;;10.10;99.90;;;;;;4896919;29;20246;-60
2023/05/11 00:44:34;;;;;;;2.07;0.20;;;10.10;99.90;;;;;;4889702;29;20217;-60
2023/05/11 00:47:01;;;;;;;0.20;0.20;;;10.10;99.90;;;;;;4889675;29;20666;-60
2023/05/11 00:49:28;;;;;;;0.40;0.13;;;10.10;99.90;;;;;;4894856;29;20688;-60
2023/05/11 00:51:56;;;;;;;0.30;0.20;;;10.10;99.90;;;;;;4897146;29;20282;-60
2023/05/11 00:54:23;;;;;;;0.20;0.20;;;10.20;99.90;;;;;;4896977;29;20264;-60
2023/05/11 00:56:50;;;;;;;0.30;0.20;;;10.10;99.90;;;;;;4896169;29;20816;-61
2023/05/11 00:59:17;;;;;;;0.37;0.30;;;10.10;99.90;;;;;;4897160;29;20633;-60
2023/05/11 01:01:46;;;;;;;0.93;0.20;;;10.10;99.90;;;;;;4896519;29;20252;-60
2023/05/11 01:04:13;;;;;;;0.20;0.20;;;10.10;99.90;;;;;;4896786;29;20205;-60
2023/05/11 01:06:49;;;;;;;0.20;0.20;;;10.10;99.90;;;;;;4897025;29;20760;-60
2023/05/11 01:09:27;;;;;;;0.20;0.20;;;10.10;99.90;;;;;;4897375;29;20223;-60
2023/05/11 01:12:03;;;;;;;1.33;0.20;;;10.00;99.90;;;;;;4895432;29;20229;-60
2023/05/11 01:14:39;;;;;;;0.73;0.20;;;9.90;99.90;;;;;;4894721;29;20277;-60
2023/05/11 01:17:11;;;;;;;1.13;0.17;;;9.90;99.90;;;;;;4896784;29;20201;-60
2023/05/11 01:19:44;;;;;;;1.27;0.30;;;9.90;99.90;;;;;;4896372;29;20292;-60
2023/05/11 01:22:23;;;;;;;0.20;0.20;;;9.90;99.90;;;;;;4896523;29;20223;-60
2023/05/11 01:25:05;;;;;;;1.27;0.30;;;9.90;99.90;;;;;;4895011;29;20201;-59
2023/05/11 01:28:02;;;;;;;0.20;0.20;;;9.90;99.90;;;;;;4894749;29;20584;-60
2023/05/11 01:30:36;;;;;;;0.40;0.20;;;9.90;99.90;;;;;;4880969;29;20207;-60
2023/05/11 01:33:07;;;;;;;0.20;0.20;;;9.80;99.90;;;;;;4896321;29;20799;-60
2023/05/11 01:35:37;;;;;;;0.20;0.20;;;9.80;99.90;;;;;;4896887;29;20213;-60
2023/05/11 01:38:08;;;;;;;0.10;0.10;;;9.90;99.90;;;;;;4895602;29;20219;-60
2023/05/11 01:40:38;;;;;;;0.20;0.20;;;9.90;99.90;;;;;;4887927;29;20203;-59
2023/05/11 01:43:08;;;;;;;0.20;0.20;;;10.00;99.90;;;;;;4893046;29;20223;-60
2023/05/11 01:45:41;;;;;;;0.20;0.20;;;9.80;99.90;;;;;;4896488;29;20213;-60
2023/05/11 01:48:17;;;;;;;1.23;0.20;;;9.80;99.90;;;;;;4893645;29;20286;-60
2023/05/11 01:50:46;;;;;;;0.20;0.20;;;9.90;99.90;;;;;;4896143;29;20205;-60
2023/05/11 01:53:13;;;;;;;0.53;0.20;;;9.90;99.90;;;;;;4896335;29;20652;-60
2023/05/11 01:55:42;;;;;;;2.00;0.30;;;9.80;99.90;;;;;;4892652;29;20288;-60
2023/05/11 01:58:13;;;;;;;0.30;0.13;;;9.80;99.90;;;;;;4893522;29;20265;-60
2023/05/11 02:00:43;;;;;;;2.27;0.20;;;9.90;99.90;;;;;;4888318;29;20203;-60
2023/05/11 02:03:10;;;;;;;0.77;0.20;;;9.80;99.90;;;;;;4896260;29;20217;-60
2023/05/11 02:05:39;;;;;;;0.60;0.10;;;9.80;99.90;;;;;;4896170;29;20337;-60
2023/05/11 02:08:08;;;;;;;0.10;0.10;;;9.80;99.90;;;;;;4896012;29;20209;-60
2023/05/11 02:10:36;;;;;;;0.23;0.10;;;9.80;99.90;;;;;;4877546;29;20202;-60
2023/05/11 02:13:05;;;;;;;0.77;0.20;;;9.80;99.90;;;;;;4888376;29;20625;-60
2023/05/11 02:15:33;;;;;;;0.20;0.20;;;9.80;99.90;;;;;;4888224;29;20274;-60
2023/05/11 02:18:04;;;;;;;0.10;0.10;;;9.80;99.90;;;;;;4896008;29;20744;-60
2023/05/11 02:20:33;;;;;;;0.10;0.10;;;9.80;99.90;;;;;;4896177;29;20225;-59
2023/05/11 02:23:00;;;;;;;1.40;0.20;;;9.80;99.90;;;;;;4894954;29;20229;-60
2023/05/11 02:25:29;;;;;;;0.10;0.10;;;9.70;99.90;;;;;;4894124;29;20690;-59
2023/05/11 02:27:56;;;;;;;0.10;0.10;;;9.70;99.90;;;;;;4893150;29;20715;-60
2023/05/11 02:30:25;;;;;;;0.10;0.10;;;9.80;99.90;;;;;;4899528;29;20253;-60
2023/05/11 02:32:55;;;;;;;0.37;0.10;;;9.70;99.90;;;;;;4899455;29;20234;-59
2023/05/11 02:35:26;;;;;;;0.10;0.10;;;9.70;99.90;;;;;;4897226;29;20206;-60
2023/05/11 02:37:56;;;;;;;0.30;0.20;;;9.70;99.90;;;;;;4894079;29;20225;-60
2023/05/11 02:40:28;;;;;;;0.57;0.20;;;9.80;99.90;;;;;;4883829;29;20222;-60
2023/05/11 02:43:00;;;;;;;0.30;0.30;;;9.70;99.90;;;;;;4899378;29;20291;-60
2023/05/11 02:45:31;;;;;;;0.10;0.10;;;9.70;99.90;;;;;;4897205;29;20211;-59
2023/05/11 02:48:00;;;;;;;1.50;0.13;;;9.70;99.90;;;;;;4898589;29;20268;-59
2023/05/11 02:50:30;;;;;;;0.10;0.10;;;9.70;99.90;;;;;;4898347;29;20205;-60
2023/05/11 02:53:03;;;;;;;0.20;0.10;;;9.70;99.90;;;;;;4891573;29;20640;-60
2023/05/11 02:55:31;;;;;;;0.40;0.10;;;9.70;99.90;;;;;;4899392;29;20205;-60
2023/05/11 02:57:58;;;;;;;0.20;0.20;;;9.70;99.90;;;;;;4899282;29;20213;-60
2023/05/11 03:00:25;;;;;;;0.23;0.10;;;9.60;99.90;;;;;;4898347;29;20283;-60
2023/05/11 03:02:52;;;;;;;2.07;0.20;;;9.60;99.90;;;;;;4894866;29;20238;-60
2023/05/11 03:05:19;;;;;;;0.20;0.10;;;9.60;99.90;;;;;;4898907;29;20273;-59
2023/05/11 03:07:47;;;;;;;0.10;0.10;;;9.70;99.90;;;;;;4899130;29;20260;-60
2023/05/11 03:10:15;;;;;;;0.10;0.10;;;9.60;99.90;;;;;;4899221;29;20225;-60
2023/05/11 03:12:42;;;;;;;0.30;0.30;;;9.60;99.90;;;;;;4897638;29;20286;-59
2023/05/11 03:15:11;;;;;;;0.10;0.10;;;9.50;99.90;;;;;;4890599;29;20201;-60
2023/05/11 03:17:40;;;;;;;0.77;0.10;;;9.50;99.90;;;;;;4897299;29;20255;-60
2023/05/11 03:20:09;;;;;;;0.43;0.10;;;9.40;99.90;;;;;;4898588;29;20280;-59
2023/05/11 03:22:38;;;;;;;0.10;0.10;;;9.50;99.90;;;;;;4898531;29;20229;-60
2023/05/11 03:25:09;;;;;;;0.50;0.10;;;9.50;99.90;;;;;;4899104;29;20203;-60
2023/05/11 03:27:37;;;;;;;0.23;0.23;;;9.50;99.90;;;;;;4898903;29;20292;-60
2023/05/11 03:30:07;;;;;;;0.40;0.20;;;9.50;99.90;;;;;;4897602;29;20206;-60
2023/05/11 03:32:37;;;;;;;0.30;0.30;;;9.60;99.90;;;;;;4897237;29;20627;-60
2023/05/11 03:35:04;;;;;;;0.10;0.10;;;9.50;99.90;;;;;;4897441;29;20203;-59
2023/05/11 03:37:37;;;;;;;0.30;0.30;;;9.40;99.90;;;;;;4890203;29;20205;-59
2023/05/11 03:40:07;;;;;;;0.10;0.10;;;9.50;99.90;;;;;;4898472;29;20229;-59
2023/05/11 03:42:37;;;;;;;1.53;0.17;;;9.40;99.90;;;;;;4897420;29;20228;-60
2023/05/11 03:45:07;;;;;;;0.20;0.20;;;9.40;99.90;;;;;;4898460;29;20205;-60
2023/05/11 03:47:39;;;;;;;0.20;0.13;;;9.40;99.90;;;;;;4890987;29;20206;-60
2023/05/11 03:50:08;;;;;;;2.57;0.20;;;9.40;99.90;;;;;;4894615;29;20200;-60
2023/05/11 03:52:36;;;;;;;0.20;0.20;;;9.50;99.90;;;;;;4893691;29;20757;-60
2023/05/11 03:55:04;;;;;;;1.23;0.10;;;9.40;99.90;;;;;;4894083;29;20269;-60
2023/05/11 03:57:36;;;;;;;0.83;0.20;;;9.40;99.90;;;;;;4895059;29;20257;-60
2023/05/11 04:00:04;;;;;;;0.10;0.10;;;9.30;99.90;;;;;;4900905;29;20719;-60
2023/05/11 04:02:31;;;;;;;1.20;0.10;;;9.40;99.90;;;;;;4897775;29;20257;-60
2023/05/11 04:04:58;;;;;;;0.10;0.10;;;9.40;99.90;;;;;;4899417;29;20209;-59
2023/05/11 04:07:25;;;;;;;0.20;0.10;;;9.40;99.90;;;;;;4896154;29;20217;-60
2023/05/11 04:09:51;;;;;;;0.10;0.10;;;9.40;99.90;;;;;;4896936;29;20679;-59
2023/05/11 04:12:18;;;;;;;0.23;0.23;;;9.40;99.90;;;;;;4897997;29;20254;-59
2023/05/11 04:14:47;;;;;;;0.10;0.10;;;9.40;99.90;;;;;;4915912;29;20256;-60
2023/05/11 04:17:14;;;;;;;0.20;0.20;;;9.40;99.90;;;;;;4904782;29;20199;-59
2023/05/11 04:19:41;;;;;;;0.00;0.00;;;9.40;99.90;;;;;;4900505;29;20593;-60
2023/05/11 04:22:07;;;;;;;0.10;0.10;;;9.30;99.90;;;;;;4891253;29;20229;-60
2023/05/11 04:24:34;;;;;;;0.20;0.20;;;9.30;99.90;;;;;;4889729;29;20260;-60
2023/05/11 04:27:02;;;;;;;1.03;0.10;;;9.30;99.90;;;;;;4897702;29;20206;-59
2023/05/11 04:29:29;;;;;;;0.30;0.30;;;9.30;99.90;;;;;;4897694;29;20429;-60
2023/05/11 04:31:57;;;;;;;0.00;0.00;;;9.30;99.90;;;;;;4896656;29;20236;-60
2023/05/11 04:34:24;;;;;;;0.20;0.10;;;9.20;99.90;;;;;;4885577;29;20213;-59
2023/05/11 04:36:52;;;;;;;0.20;0.20;;;9.30;99.90;;;;;;4889544;29;20204;-59
2023/05/11 04:39:19;;;;;;;0.20;0.10;;;9.30;99.90;;;;;;4894681;29;20216;-60
2023/05/11 04:41:46;;;;;;;0.47;0.10;;;9.40;99.90;;;;;;4897184;29;20209;-59
2023/05/11 04:44:13;;;;;;;0.00;0.00;;;9.30;99.90;;;;;;4889447;29;20643;-59
2023/05/11 04:46:40;;;;;;;0.03;0.00;;;9.30;99.90;;;;;;4896859;29;20209;-59
2023/05/11 04:49:08;;;;;;;0.17;0.10;;;9.30;99.90;;;;;;4896820;29;20560;-60
2023/05/11 04:51:35;;;;;;;0.03;0.03;;;9.30;99.90;;;;;;4892077;29;20217;-59
2023/05/11 04:54:02;;;;;;;1.40;0.10;;;9.20;99.90;;;;;;4892972;29;20621;-60
2023/05/11 04:56:29;;;;;;;0.10;0.10;;;9.20;99.90;;;;;;4897111;29;20207;-59
2023/05/11 04:58:56;;;;;;;0.27;0.20;;;9.30;99.90;;;;;;4896155;29;20209;-60
2023/05/11 05:01:23;;;;;;;0.70;0.17;;;9.20;99.90;;;;;;4896882;29;20223;-60
2023/05/11 05:03:50;;;;;;;0.20;0.20;;;9.20;99.90;;;;;;4895598;29;20711;-59
2023/05/11 05:06:18;;;;;;;0.20;0.20;;;9.30;99.90;;;;;;4893836;29;20203;-60
2023/05/11 05:08:45;;;;;;;0.97;0.10;;;9.40;99.90;;;;;;4895585;29;20236;-59
2023/05/11 05:11:12;;;;;;;0.67;0.20;;;9.30;99.90;;;;;;4895693;29;20631;-59
2023/05/11 05:13:39;;;;;;;1.17;0.30;;;9.30;99.90;;;;;;4894940;29;20293;-59
2023/05/11 05:16:06;;;;;;;0.10;0.10;;;9.40;99.90;;;;;;4895320;29;20202;-59
2023/05/11 05:18:33;;;;;;;0.10;0.10;;;9.40;99.90;;;;;;4896480;29;20238;-59
2023/05/11 05:21:00;;;;;;;0.13;0.13;;;9.40;99.90;;;;;;4895849;29;20251;-60
2023/05/11 05:23:28;;;;;;;0.10;0.10;;;9.40;99.90;;;;;;4895639;29;20234;-60
2023/05/11 05:25:55;;;;;;;1.70;0.10;;;9.40;99.90;;;;;;4894942;29;20209;-60
2023/05/11 05:28:23;;;;;;;0.20;0.20;;;9.40;99.90;;;;;;4886538;29;20202;-60
2023/05/11 05:30:50;;;;;;;0.20;0.20;;;9.40;99.90;;;;;;4895957;29;20199;-60
2023/05/11 05:33:19;;;;;;;0.10;0.10;;;9.40;99.90;;;;;;4894600;29;20677;-60
2023/05/11 05:35:47;;;;;;;0.57;0.10;;;9.50;99.90;;;;;;4894856;29;20210;-60
2023/05/11 05:38:14;;;;;;;0.10;0.10;;;9.50;99.90;;;;;;4893420;29;20209;-60
2023/05/11 05:40:42;;;;;;;0.10;0.10;;;9.40;99.90;;;;;;4892118;29;20786;-60
2023/05/11 05:43:10;;;;;;;0.20;0.07;;;9.40;99.90;;;;;;4894652;29;20547;-60
2023/05/11 05:45:37;;;;;;;0.97;0.00;;;9.50;99.90;;;;;;4889030;29;20308;-60
2023/05/11 05:48:04;;;;;;;1.13;0.10;;;9.50;99.90;;;;;;4892364;29;20205;-60
2023/05/11 05:50:32;;;;;;;0.10;0.10;;;9.50;99.90;;;;;;4891766;29;20309;-60
2023/05/11 05:53:01;;;;;;;0.30;0.30;;;9.50;99.90;;;;;;4895347;29;20754;-60
2023/05/11 05:55:29;;;;;;;0.93;0.10;;;9.50;99.90;;;;;;4893939;29;20209;-59
2023/05/11 05:57:57;;;;;;;1.17;0.20;;;9.50;99.90;;;;;;4892925;29;20212;-60
2023/05/11 06:00:24;;;;;;;0.20;0.10;;;9.50;99.90;;;;;;4886425;29;20259;-59
2023/05/11 06:02:51;;;;;;;0.10;0.10;;;9.60;99.90;;;;;;4891168;29;20257;-60
2023/05/11 06:05:18;;;;;;;0.10;0.10;;;9.50;99.90;;;;;;4895146;29;20205;-60
2023/05/11 06:07:45;;;;;;;0.50;0.10;;;9.50;99.90;;;;;;4893338;29;20660;-59
2023/05/11 06:10:12;;;;;;;1.33;0.10;;;9.60;99.90;;;;;;4894474;29;20202;-59
2023/05/11 06:12:39;;;;;;;0.10;0.10;;;9.60;99.90;;;;;;4893698;29;20230;-59
2023/05/11 06:15:09;;;;;;;0.27;0.20;;;9.50;99.90;;;;;;4896740;29;20668;-59
2023/05/11 06:17:35;;;;;;;1.37;0.20;;;9.60;99.90;;;;;;4894092;29;20205;-59
2023/05/11 06:20:03;;;;;;;1.90;0.10;;;9.60;99.90;;;;;;4892276;29;20707;-60
2023/05/11 06:22:29;;;;;;;0.10;0.10;;;9.60;99.90;;;;;;4891923;29;20233;-59
2023/05/11 06:24:56;;;;;;;0.10;0.00;;;9.60;99.90;;;;;;4895941;29;20331;-59
2023/05/11 06:27:23;;;;;;;0.10;0.10;;;9.60;99.90;;;;;;4895866;29;20209;-60
2023/05/11 06:29:50;;;;;;;2.53;0.20;;;9.70;99.90;;;;;;4895213;29;20241;-59
2023/05/11 06:32:19;;;;;;;0.47;0.10;;;9.70;99.90;;;;;;4893088;29;20293;-59
2023/05/11 06:34:46;;;;;;;3.53;0.73;;;9.80;99.90;;;;;;4886305;29;20204;-59
2023/05/11 06:37:19;;;;;;;0.27;0.27;;;9.80;99.90;;;;;;4886962;29;20202;-59
2023/05/11 06:39:46;;;;;;;0.10;0.10;;;9.90;99.90;;;;;;4892926;29;20209;-59
2023/05/11 06:42:13;;;;;;;0.63;0.30;;;9.70;99.90;;;;;;4895750;29;20266;-60
2023/05/11 06:44:40;;;;;;;2.70;0.67;;;9.70;99.90;;;;;;4895918;29;20276;-59
2023/05/11 06:47:08;;;;;;;1.33;1.23;;;9.70;99.90;;;;;;4895962;29;20267;-59
2023/05/11 06:49:36;;;;;;;2.37;0.50;;;9.80;99.90;;;;;;4895477;29;20550;-59
2023/05/11 06:52:03;;;;;;;0.30;0.30;;;9.80;99.90;;;;;;4894801;29;20248;-60
2023/05/11 06:54:30;;;;;;;1.17;0.37;;;9.90;99.90;;;;;;4887806;29;20207;-59
2023/05/11 06:56:57;;;;;;;4.83;0.20;;;9.90;99.90;;;;;;4895853;29;20207;-59
2023/05/11 06:59:24;;;;;;;0.27;0.20;;;9.90;99.90;;;;;;4895934;29;20266;-60
2023/05/11 07:01:51;;;;;;;0.20;0.20;;;9.80;99.90;;;;;;4895568;29;20263;-59
2023/05/11 07:04:18;;;;;;;1.40;0.30;;;9.80;99.90;;;;;;4895760;29;20210;-59
2023/05/11 07:06:46;;;;;;;3.03;0.37;;;9.90;99.90;;;;;;4889489;29;20274;-59
2023/05/11 07:09:13;;;;;;;1.23;0.67;;;10.10;99.90;;;;;;4893599;29;20207;-59
2023/05/11 07:11:40;;;;;;;2.93;0.37;;;10.20;99.90;;;;;;4896193;29;20217;-60
2023/05/11 07:14:07;;;;;;;0.43;0.30;;;10.20;99.90;;;;;;4907415;29;20293;-60
2023/05/11 07:16:36;;;;;;;3.10;0.60;;;10.40;99.90;;;;;;4899272;29;20297;-59
2023/05/11 07:19:04;;;;;;;0.77;0.20;;;10.50;99.90;;;;;;4899649;29;20207;-59
2023/05/11 07:21:32;;;;;;;1.70;0.23;;;10.60;99.90;;;;;;4890014;29;20704;-59
2023/05/11 07:24:00;;;;;;;2.47;0.50;;;10.70;99.90;;;;;;4898433;29;20225;-59
2023/05/11 07:26:27;;;;;;;0.97;0.60;;;10.80;99.90;;;;;;4899845;29;20206;-60
2023/05/11 07:28:54;;;;;;;1.23;0.60;;;10.70;99.90;;;;;;4898873;29;20598;-60
2023/05/11 07:31:21;;;;;;;1.10;0.30;;;10.80;99.90;;;;;;4895897;29;20566;-60
2023/05/11 07:33:48;;;;;;;0.50;0.50;;;10.90;99.90;;;;;;4892924;29;20760;-59
2023/05/11 07:36:15;;;;;;;0.40;0.40;;;10.90;99.90;;;;;;4898722;29;20207;-60
2023/05/11 07:38:42;;;;;;;0.53;0.53;;;10.90;99.90;;;;;;4898632;29;20206;-59
2023/05/11 07:41:10;;;;;;;0.47;0.47;;;10.70;99.90;;;;;;4897654;29;20336;-59
2023/05/11 07:43:37;;;;;;;0.37;0.30;;;10.70;99.90;;;;;;4890535;29;20607;-60
2023/05/11 07:46:05;;;;;;;0.13;0.13;;;10.80;99.90;;;;;;4890073;29;20241;-60
2023/05/11 07:48:32;;;;;;;0.20;0.20;;;10.90;99.90;;;;;;4887048;29;20271;-60
2023/05/11 07:50:59;;;;;;;0.20;0.20;;;11.20;99.90;;;;;;4890445;29;20282;-60
2023/05/11 07:53:26;;;;;;;0.20;0.20;;;11.20;99.90;;;;;;4889288;29;20261;-60
2023/05/11 07:55:53;;;;;;;0.20;0.20;;;11.60;99.90;;;;;;4898522;29;20233;-60
2023/05/11 07:58:21;;;;;;;0.10;0.10;;;11.80;99.90;;;;;;4897286;29;20206;-60
2023/05/11 08:00:48;;;;;;;0.10;0.10;;;12.00;99.90;;;;;;4893230;29;20222;-60
2023/05/11 08:03:15;;;;;;;0.10;0.10;;;12.00;99.90;;;;;;4897061;29;20283;-60
2023/05/11 08:05:42;;;;;;;0.20;0.20;;;12.30;99.90;;;;;;4903471;29;20242;-60
2023/05/11 08:08:09;;;;;;;0.10;0.10;;;12.20;99.90;;;;;;4904697;29;20209;-60
2023/05/11 08:10:36;;;;;;;0.20;0.20;;;12.00;99.90;;;;;;4903861;29;20631;-60
2023/05/11 08:13:03;;;;;;;0.17;0.10;;;12.30;99.90;;;;;;4901234;29;20233;-60
2023/05/11 08:15:32;;;;;;;2.00;0.30;;;12.30;99.90;;;;;;4901389;29;20212;-60
2023/05/11 08:18:00;;;;;;;0.30;0.30;;;12.40;99.90;;;;;;4901833;29;20699;-61
2023/05/11 08:20:27;;;;;;;1.10;0.30;;;12.70;99.90;;;;;;4910044;29;20209;-60
2023/05/11 08:22:54;;;;;;;0.57;0.30;;;12.40;99.90;;;;;;4917402;29;20292;-59
2023/05/11 08:25:21;;;;;;;1.03;0.20;;;12.70;99.90;;;;;;4916882;29;20281;-60
2023/05/11 08:27:48;;;;;;;0.30;0.30;;;12.80;99.90;;;;;;4903081;29;20214;-60
2023/05/11 08:30:15;;;;;;;0.73;0.20;;;12.70;99.90;;;;;;4892163;29;20268;-60
2023/05/11 08:32:44;;;;;;;0.40;0.30;;;13.00;99.90;;;;;;4895791;29;20231;-60
2023/05/11 08:35:12;;;;;;;0.10;0.10;;;13.10;99.90;;;;;;4894150;29;20286;-59
2023/05/11 08:37:39;;;;;;;0.17;0.17;;;13.20;99.90;;;;;;4896429;29;20282;-60
2023/05/11 08:40:08;;;;;;;0.10;0.10;;;13.20;99.90;;;;;;4896915;29;20199;-60
2023/05/11 08:42:39;;;;;;;0.40;0.40;;;13.10;99.90;;;;;;4895813;29;20673;-60
2023/05/11 08:45:07;;;;;;;1.13;0.20;;;13.20;99.90;;;;;;4895118;29;20665;-59
2023/05/11 08:47:36;;;;;;;1.10;0.20;;;12.90;99.90;;;;;;4895901;29;20642;-60
2023/05/11 08:50:06;;;;;;;0.30;0.30;;;12.70;99.90;;;;;;4896125;29;20258;-60
2023/05/11 08:52:36;;;;;;;1.13;0.40;;;12.70;99.90;;;;;;4895699;29;20290;-60
2023/05/11 08:55:04;;;;;;;0.17;0.17;;;12.90;99.90;;;;;;4896030;29;20689;-60
2023/05/11 08:57:35;;;;;;;0.30;0.30;;;12.80;99.90;;;;;;4894920;29;20203;-60
2023/05/11 09:00:03;;;;;;;0.20;0.20;;;12.70;99.90;;;;;;4894455;29;20217;-60
2023/05/11 09:02:31;;;;;;;0.13;0.13;;;12.60;99.90;;;;;;4893537;29;20713;-60
2023/05/11 09:05:02;;;;;;;1.43;0.30;;;12.50;99.90;;;;;;4895697;29;20203;-60
2023/05/11 09:07:36;;;;;;;0.20;0.20;;;12.50;99.90;;;;;;4895187;29;20214;-60
2023/05/11 09:10:04;;;;;;;0.20;0.20;;;12.40;99.90;;;;;;4895580;29;20292;-60
2023/05/11 09:12:32;;;;;;;0.30;0.30;;;12.20;99.90;;;;;;4895288;29;20575;-60
2023/05/11 09:14:59;;;;;;;0.40;0.40;;;11.90;99.90;;;;;;4895975;29;20237;-60
2023/05/11 09:17:27;;;;;;;0.33;0.33;;;11.80;99.90;;;;;;4895568;29;20690;-60
2023/05/11 09:19:59;;;;;;;0.20;0.20;;;11.80;99.90;;;;;;4894569;29;20281;-60
2023/05/11 09:22:27;;;;;;;1.47;0.93;;;11.80;99.90;;;;;;4894964;29;20777;-60
2023/05/11 09:24:55;;;;;;;0.47;0.43;;;11.80;99.90;;;;;;4895575;29;20297;-60
2023/05/11 09:27:25;;;;;;;0.37;0.37;;;11.70;99.90;;;;;;4895178;29;20215;-60
2023/05/11 09:29:53;;;;;;;0.63;0.60;;;11.80;99.90;;;;;;4894827;29;20297;-59
2023/05/11 09:32:20;;;;;;;0.77;0.30;;;11.80;99.90;;;;;;4895118;29;20221;-60
2023/05/11 09:34:47;;;;;;;1.03;0.50;;;11.90;99.90;;;;;;4894622;29;20196;-60
2023/05/11 09:37:17;;;;;;;0.60;0.60;;;12.10;99.90;;;;;;4894249;29;20238;-60
2023/05/11 09:39:44;;;;;;;0.95;0.50;;;12.20;99.90;;;;;;4891075;29;20456;-57
2023/05/11 09:42:14;;;;;;;0.55;0.52;;;11.90;99.90;;;;;;4891681;29;20891;-64
2023/05/11 09:44:41;;;;;;;0.50;0.50;;;12.10;99.90;;;;;;4894703;29;20202;-64
2023/05/11 09:47:13;;;;;;;0.40;0.40;;;12.30;99.90;;;;;;4894946;29;20205;-63
2023/05/11 09:49:42;;;;;;;0.20;0.20;;;12.60;99.90;;;;;;4894894;29;20242;-63
2023/05/11 09:52:10;;;;;;;2.20;0.10;;;12.80;99.90;;;;;;4892633;29;20601;-63
2023/05/11 09:54:45;;;;;;;1.47;0.13;;;13.10;99.90;;;;;;4889075;29;20313;-64
2023/05/11 09:57:28;;;;;;;0.20;0.20;;;13.50;99.90;;;;;;4894547;29;20202;-64
2023/05/11 09:59:57;;;;;;;0.47;0.10;;;14.10;99.90;;;;;;4895066;29;20283;-63
2023/05/11 10:02:26;;;;;;;1.33;0.17;;;14.60;99.90;;;;;;4894460;29;20606;-60
2023/05/11 10:04:54;;;;;;;0.47;0.10;;;14.50;99.90;;;;;;4894820;29;20210;-59
2023/05/11 10:07:26;;;;;;;0.30;0.30;;;14.50;99.90;;;;;;4893771;29;20203;-67
2023/05/11 10:09:55;;;;;;;0.27;0.20;;;14.80;99.90;;;;;;4894882;29;20199;-64
2023/05/11 10:12:24;;;;;;;0.10;0.10;;;15.00;99.90;;;;;;4890789;29;20254;-64
2023/05/11 10:14:55;;;;;;;2.00;0.20;;;15.70;99.90;;;;;;4894687;29;20210;-63
2023/05/11 10:17:22;;;;;;;0.30;0.30;;;15.90;99.90;;;;;;4894906;29;20202;-64
2023/05/11 10:19:49;;;;;;;0.30;0.30;;;15.90;99.90;;;;;;4893864;29;20203;-63
2023/05/11 10:22:17;;;;;;;1.33;0.37;;;16.00;99.90;;;;;;4894281;29;20685;-64
2023/05/11 10:24:44;;;;;;;0.93;0.50;;;15.50;99.90;;;;;;4891569;29;20207;-64
2023/05/11 10:27:12;;;;;;;0.43;0.43;;;15.00;99.90;;;;;;4891677;29;20206;-64
2023/05/11 10:29:39;;;;;;;1.53;0.53;;;14.90;99.90;;;;;;4894492;29;20626;-58
2023/05/11 10:32:10;;;;;;;0.73;0.40;;;14.60;99.90;;;;;;4894327;29;20233;-58
2023/05/11 10:34:38;;;;;;;0.40;0.20;;;14.60;99.90;;;;;;4891400;29;20630;-58
2023/05/11 10:37:06;;;;;;;0.50;0.40;;;14.50;99.90;;;;;;4895662;29;20249;-58
2023/05/11 10:39:37;;;;;;;0.20;0.20;;;14.10;99.90;;;;;;4894389;29;20285;-57
2023/05/11 10:42:27;;;;;;;0.23;0.20;;;13.90;99.90;;;;;;4894940;29;20227;-57
2023/05/11 10:45:10;;;;;;;0.30;0.30;;;13.80;99.90;;;;;;4896040;29;20689;-58
2023/05/11 10:48:15;;;;;;;0.20;0.20;;;13.90;99.90;;;;;;4893640;29;20274;-58
2023/05/11 10:50:56;;;;;;;1.40;0.20;;;14.00;99.90;;;;;;4897375;29;20625;-58
2023/05/11 10:53:39;;;;;;;0.33;0.33;;;13.90;99.90;;;;;;4897921;29;20283;-59
2023/05/11 10:56:34;;;;;;;0.40;0.40;;;13.70;99.90;;;;;;4896583;29;20599;-60
2023/05/11 10:59:39;;;;;;;0.60;0.60;;;13.30;99.90;;;;;;4894252;29;20236;-66
2023/05/11 11:02:06;;;;;;;0.50;0.40;;;13.30;99.90;;;;;;4895362;29;20318;-67
2023/05/11 11:04:46;;;;;;;0.37;0.37;;;13.10;99.90;;;;;;4898544;29;20213;-59
2023/05/11 11:07:17;;;;;;;1.60;0.30;;;13.10;99.90;;;;;;4897074;29;20232;-58
2023/05/11 11:09:55;;;;;;;0.40;0.30;;;13.10;99.90;;;;;;4897951;29;20215;-63
2023/05/11 11:12:23;;;;;;;0.60;0.60;;;13.00;99.90;;;;;;4896349;29;20312;-60
2023/05/11 11:14:54;;;;;;;0.60;0.60;;;13.20;99.90;;;;;;4896904;29;20203;-60
2023/05/11 11:17:26;;;;;;;0.30;0.30;;;12.90;99.90;;;;;;4895978;29;20265;-57
2023/05/11 11:19:56;;;;;;;0.33;0.20;;;13.10;99.90;;;;;;4893888;29;20652;-59
2023/05/11 11:22:45;;;;;;;0.83;0.30;;;13.20;99.90;;;;;;4897301;29;20233;-68
2023/05/11 11:25:13;;;;;;;0.10;0.10;;;13.50;99.90;;;;;;4893548;29;20261;-68
2023/05/11 11:27:57;;;;;;;0.33;0.33;;;13.60;99.90;;;;;;4899049;29;20260;-61
2023/05/11 11:30:25;;;;;;;0.30;0.30;;;14.00;99.90;;;;;;4897799;29;20210;-65
2023/05/11 11:32:53;;;;;;;0.37;0.30;;;14.20;99.90;;;;;;4897208;29;20306;-70
2023/05/11 11:35:47;;;;;;;0.30;0.30;;;14.60;99.90;;;;;;4898644;29;20211;-69
2023/05/11 11:38:16;;;;;;;1.20;0.50;;;14.90;99.90;;;;;;4898369;29;20640;-62
2023/05/11 11:40:44;;;;;;;2.63;0.40;;;15.40;99.90;;;;;;4898549;29;20208;-67
2023/05/11 11:43:12;;;;;;;0.67;0.57;;;15.60;99.90;;;;;;4896204;29;20238;-67
2023/05/11 11:45:40;;;;;;;0.63;0.63;;;15.90;99.90;;;;;;4898318;29;20251;-66
2023/05/11 11:48:14;;;;;;;0.43;0.40;;;16.00;99.90;;;;;;4898365;29;20286;-64
2023/05/11 11:50:43;;;;;;;0.30;0.30;;;16.10;99.90;;;;;;4898095;29;20214;-66
2023/05/11 11:53:12;;;;;;;0.67;0.20;;;16.00;99.90;;;;;;4898078;29;20283;-64
2023/05/11 11:55:47;;;;;;;0.30;0.30;;;16.20;99.90;;;;;;4897800;29;20207;-65
2023/05/11 11:58:50;;;;;;;0.80;0.27;;;16.30;99.90;;;;;;4889698;29;20246;-71
2023/05/11 12:01:19;;;;;;;0.13;0.13;;;16.30;99.90;;;;;;4890807;29;20207;-67
2023/05/11 12:03:53;;;;;;;0.20;0.20;;;16.30;99.90;;;;;;4895732;29;20322;-67
2023/05/11 12:06:21;;;;;;;0.70;0.17;;;16.40;99.90;;;;;;4897205;29;20618;-73
2023/05/11 12:08:51;;;;;;;0.10;0.10;;;16.50;99.90;;;;;;4897576;29;20275;-70
2023/05/11 12:11:18;;;;;;;0.17;0.17;;;16.60;99.90;;;;;;4897925;29;20211;-72
2023/05/11 12:13:45;;;;;;;0.20;0.20;;;16.60;99.90;;;;;;4890879;29;20231;-69
2023/05/11 12:16:13;;;;;;;0.30;0.20;;;16.80;99.90;;;;;;4895661;29;20290;-70
2023/05/11 12:18:42;;;;;;;0.20;0.20;;;16.80;99.90;;;;;;4897684;29;20730;-67
2023/05/11 12:21:19;;;;;;;1.43;0.27;;;16.80;99.90;;;;;;4897752;29;20226;-69
2023/05/11 12:23:54;;;;;;;0.57;0.40;;;16.90;99.90;;;;;;4897108;29;20226;-66
2023/05/11 12:26:22;;;;;;;0.40;0.20;;;16.80;99.90;;;;;;4897696;29;20249;-65
2023/05/11 12:28:49;;;;;;;0.10;0.10;;;16.70;99.90;;;;;;4896821;29;20676;-71
2023/05/11 12:31:17;;;;;;;0.20;0.20;;;16.60;99.90;;;;;;4897029;29;20678;-68
2023/05/11 12:33:47;;;;;;;1.70;0.33;;;16.40;99.90;;;;;;4896932;29;20318;-66
2023/05/11 12:36:15;;;;;;;0.70;0.20;;;16.30;99.90;;;;;;4897352;29;20243;-67
2023/05/11 12:38:46;;;;;;;1.43;0.20;;;16.10;99.90;;;;;;4897553;29;20242;-67
2023/05/11 12:41:21;;;;;;;1.87;0.50;;;15.70;99.90;;;;;;4897533;29;20211;-67
2023/05/11 12:43:48;;;;;;;0.40;0.40;;;15.60;99.90;;;;;;4896849;29;20226;-67
2023/05/11 12:46:16;;;;;;;0.30;0.30;;;15.60;99.90;;;;;;4894656;29;20268;-66
2023/05/11 12:48:43;;;;;;;1.33;0.47;;;15.70;99.90;;;;;;4899410;29;20199;-65
2023/05/11 12:51:10;;;;;;;0.97;0.63;;;15.80;99.90;;;;;;4896297;29;20600;-68
2023/05/11 12:53:40;;;;;;;0.60;0.50;;;15.80;99.90;;;;;;4895780;29;20600;-66
2023/05/11 12:56:07;;;;;;;0.70;0.70;;;15.90;99.90;;;;;;4895985;29;20306;-65
2023/05/11 12:58:40;;;;;;;0.40;0.40;;;15.90;99.90;;;;;;4895913;29;20195;-70
2023/05/11 13:01:08;;;;;;;1.10;0.50;;;16.30;99.90;;;;;;4895029;29;20814;-66